createdAt,value
2018-09-17T00:00:46.540Z,5.63
2018-09-17T00:03:14.990Z,7.27
2018-09-17T00:05:43.584Z,6.23
2018-09-17T00:08:12.035Z,6.17
2018-09-17T00:10:40.631Z,8.03
2018-09-17T00:13:09.215Z,4.43
2018-09-17T00:15:37.798Z,6.93
2018-09-17T00:18:06.782Z,5.67
2018-09-17T00:20:35.394Z,4.97
2018-09-17T00:23:03.862Z,4.07
2018-09-17T00:25:32.260Z,6.90
2018-09-17T00:28:01.040Z,5.90
2018-09-17T00:30:29.692Z,4.07
2018-09-17T00:32:58.981Z,5.27
2018-09-17T00:35:27.413Z,5.67
2018-09-17T00:37:55.924Z,5.30
2018-09-17T00:40:24.477Z,7.63
2018-09-17T00:42:52.951Z,5.77
2018-09-17T00:45:21.699Z,4.63
2018-09-17T00:47:50.226Z,5.83
2018-09-17T00:50:18.801Z,5.83
2018-09-17T00:52:47.273Z,6.77
2018-09-17T00:55:15.695Z,6.03
2018-09-17T00:57:44.762Z,6.63
2018-09-17T01:00:13.295Z,4.90
2018-09-17T01:02:41.888Z,5.27
2018-09-17T01:05:10.305Z,7.87
2018-09-17T01:07:38.800Z,5.73
2018-09-17T01:10:07.352Z,7.07
2018-09-17T01:12:35.891Z,5.50
2018-09-17T01:15:04.508Z,5.33
2018-09-17T01:17:32.964Z,8.50
2018-09-17T01:20:08.176Z,7.10
2018-09-17T01:22:36.708Z,4.97
2018-09-17T01:25:05.248Z,5.37
2018-09-17T01:27:33.948Z,7.30
2018-09-17T01:30:02.780Z,5.53
2018-09-17T01:32:31.920Z,4.57
2018-09-17T01:35:00.550Z,5.90
2018-09-17T01:37:29.093Z,5.27
2018-09-17T01:39:57.663Z,8.33
2018-09-17T01:42:26.659Z,8.37
2018-09-17T01:44:56.267Z,6.50
2018-09-17T01:47:24.887Z,5.80
2018-09-17T01:49:53.320Z,8.10
2018-09-17T01:52:22.804Z,6.47
2018-09-17T01:54:51.426Z,7.67
2018-09-17T01:57:19.956Z,6.97
2018-09-17T01:59:48.493Z,5.40
2018-09-17T02:02:17.542Z,8.23
2018-09-17T02:04:46.608Z,5.77
2018-09-17T02:07:15.813Z,7.27
2018-09-17T02:09:44.280Z,6.43
2018-09-17T02:12:13.658Z,7.37
2018-09-17T02:14:43.253Z,7.13
2018-09-17T02:17:11.915Z,5.90
2018-09-17T02:19:40.342Z,7.40
2018-09-17T02:22:10.100Z,5.83
2018-09-17T02:24:39.064Z,8.00
2018-09-17T02:27:07.740Z,6.87
2018-09-17T02:29:36.229Z,7.40
2018-09-17T02:32:05.715Z,5.90
2018-09-17T02:34:34.845Z,7.00
2018-09-17T02:37:03.784Z,6.47
2018-09-17T02:39:32.284Z,8.03
2018-09-17T02:42:00.726Z,7.63
2018-09-17T02:44:29.140Z,6.60
2018-09-17T02:46:58.123Z,7.23
2018-09-17T02:49:26.581Z,8.67
2018-09-17T02:51:55.116Z,10.03
2018-09-17T02:54:23.502Z,7.60
2018-09-17T02:56:52.282Z,7.57
2018-09-17T02:59:20.986Z,7.40
2018-09-17T03:01:49.529Z,7.40
2018-09-17T03:04:19.149Z,6.07
2018-09-17T03:06:47.727Z,7.87
2018-09-17T03:09:16.156Z,8.30
2018-09-17T03:11:45.484Z,8.27
2018-09-17T03:14:14.348Z,7.30
2018-09-17T03:16:53.972Z,11.93
2018-09-17T03:19:22.483Z,7.60
2018-09-17T03:21:51.927Z,8.90
2018-09-17T03:24:20.423Z,9.67
2018-09-17T03:26:48.900Z,8.17
2018-09-17T03:29:18.485Z,8.63
2018-09-17T03:31:46.883Z,8.17
2018-09-17T03:34:15.311Z,7.17
2018-09-17T03:36:43.723Z,9.20
2018-09-17T03:39:12.286Z,8.83
2018-09-17T03:41:40.774Z,11.00
2018-09-17T03:44:09.398Z,10.30
2018-09-17T03:46:37.843Z,10.57
2018-09-17T03:49:06.325Z,8.23
2018-09-17T03:51:35.564Z,8.90
2018-09-17T03:54:04.732Z,8.43
2018-09-17T03:56:33.561Z,8.23
2018-09-17T03:59:02.090Z,9.43
2018-09-17T04:01:30.641Z,10.17
2018-09-17T04:03:59.064Z,9.20
2018-09-17T04:06:27.480Z,9.43
2018-09-17T04:08:55.910Z,9.77
2018-09-17T04:11:24.680Z,9.10
2018-09-17T04:13:53.732Z,9.33
2018-09-17T04:16:22.228Z,9.80
2018-09-17T04:18:50.889Z,8.70
2018-09-17T04:21:19.289Z,9.00
2018-09-17T04:23:48.908Z,9.53
2018-09-17T04:26:18.147Z,10.63
2018-09-17T04:28:46.730Z,8.90
2018-09-17T04:31:15.224Z,12.27
2018-09-17T04:33:44.151Z,9.10
2018-09-17T04:36:13.812Z,8.13
2018-09-17T04:38:42.497Z,7.83
2018-09-17T04:41:11.137Z,8.77
2018-09-17T04:43:39.881Z,8.20
2018-09-17T04:46:09.078Z,8.27
2018-09-17T04:48:37.512Z,13.30
2018-09-17T04:51:06.885Z,9.30
2018-09-17T04:53:35.631Z,10.30
2018-09-17T04:56:04.105Z,11.93
2018-09-17T04:58:32.569Z,10.67
2018-09-17T05:01:01.049Z,13.17
2018-09-17T05:03:29.584Z,11.17
2018-09-17T05:05:58.255Z,11.77
2018-09-17T05:08:26.717Z,8.60
2018-09-17T05:10:55.359Z,7.40
2018-09-17T05:13:24.035Z,8.63
2018-09-17T05:15:52.766Z,9.73
2018-09-17T05:18:21.220Z,9.33
2018-09-17T05:20:49.657Z,11.93
2018-09-17T05:23:18.108Z,9.17
2018-09-17T05:25:46.527Z,8.13
2018-09-17T05:28:15.274Z,8.13
2018-09-17T05:30:43.713Z,8.73
2018-09-17T05:33:12.692Z,8.17
2018-09-17T05:35:41.300Z,7.60
2018-09-17T05:38:09.889Z,8.37
2018-09-17T05:40:38.391Z,7.97
2018-09-17T05:43:06.915Z,7.00
2018-09-17T05:45:35.416Z,7.03
2018-09-17T05:48:04.124Z,12.00
2018-09-17T05:50:33.293Z,9.00
2018-09-17T05:53:02.243Z,8.80
2018-09-17T05:55:30.680Z,9.00
2018-09-17T05:57:59.887Z,8.33
2018-09-17T06:00:28.597Z,12.00
2018-09-17T06:02:58.496Z,12.53
2018-09-17T06:05:27.172Z,10.80
2018-09-17T06:07:55.809Z,7.93
2018-09-17T06:10:25.039Z,9.73
2018-09-17T06:12:53.500Z,10.73
2018-09-17T06:15:22.028Z,9.20
2018-09-17T06:17:50.652Z,11.33
2018-09-17T06:20:19.283Z,14.07
2018-09-17T06:22:54.789Z,10.50
2018-09-17T06:25:23.328Z,12.87
2018-09-17T06:27:51.844Z,11.73
2018-09-17T06:30:21.017Z,12.93
2018-09-17T06:32:49.905Z,14.27
2018-09-17T06:35:18.455Z,12.20
2018-09-17T06:37:46.945Z,10.67
2018-09-17T06:40:15.859Z,13.70
2018-09-17T06:42:44.287Z,15.43
2018-09-17T06:45:12.745Z,13.77
2018-09-17T06:47:41.414Z,11.63
2018-09-17T06:50:10.174Z,11.33
2018-09-17T06:52:38.620Z,13.37
2018-09-17T06:55:07.074Z,17.67
2018-09-17T06:57:35.624Z,15.03
2018-09-17T07:00:04.396Z,18.37
2018-09-17T07:02:32.868Z,13.67
2018-09-17T07:05:01.317Z,12.40
2018-09-17T07:07:29.815Z,15.17
2018-09-17T07:10:01.389Z,14.57
2018-09-17T07:12:30.518Z,12.13
2018-09-17T07:14:59.176Z,16.30
2018-09-17T07:17:27.710Z,15.90
2018-09-17T07:19:56.363Z,12.03
2018-09-17T07:22:25.092Z,14.77
2018-09-17T07:24:53.640Z,14.50
2018-09-17T07:27:22.214Z,16.00
2018-09-17T07:29:50.792Z,16.13
2018-09-17T07:32:19.544Z,23.53
2018-09-17T07:34:48.062Z,15.80
2018-09-17T07:37:16.690Z,14.03
2018-09-17T07:39:45.187Z,18.03
2018-09-17T07:42:13.669Z,13.70
2018-09-17T07:44:42.076Z,11.80
2018-09-17T07:47:10.548Z,14.73
2018-09-17T07:49:38.991Z,12.60
2018-09-17T07:52:07.701Z,12.60
2018-09-17T07:54:36.279Z,16.00
2018-09-17T07:57:05.316Z,12.93
2018-09-17T07:59:33.743Z,13.00
2018-09-17T08:02:02.332Z,12.90
2018-09-17T08:04:30.995Z,16.30
2018-09-17T08:06:59.532Z,9.77
2018-09-17T08:09:28.032Z,12.60
2018-09-17T08:11:56.513Z,12.83
2018-09-17T08:14:25.046Z,15.83
2018-09-17T08:16:53.603Z,10.50
2018-09-17T08:19:22.221Z,12.00
2018-09-17T08:21:51.752Z,12.27
2018-09-17T08:24:20.360Z,13.90
2018-09-17T08:26:48.752Z,14.20
2018-09-17T08:29:17.600Z,12.47
2018-09-17T08:31:46.135Z,11.90
2018-09-17T08:34:14.901Z,10.30
2018-09-17T08:36:43.593Z,12.17
2018-09-17T08:39:14.061Z,12.53
2018-09-17T08:41:43.343Z,14.07
2018-09-17T08:44:12.832Z,9.13
2018-09-17T08:46:41.454Z,12.97
2018-09-17T08:49:10.620Z,14.30
2018-09-17T08:51:39.080Z,8.13
2018-09-17T08:54:07.555Z,11.43
2018-09-17T08:56:41.345Z,11.28
2018-09-17T08:59:15.165Z,15.00
2018-09-17T09:01:48.833Z,10.72
2018-09-17T09:04:23.095Z,13.00
2018-09-17T09:06:55.342Z,7.37
2018-09-17T09:09:23.876Z,11.47
2018-09-17T09:12:01.577Z,11.57
2018-09-17T09:14:38.214Z,7.47
2018-09-17T09:17:07.981Z,9.53
2018-09-17T09:19:36.548Z,11.12
2018-09-17T09:22:04.972Z,12.75
2018-09-17T09:24:33.551Z,10.82
2018-09-17T09:27:02.052Z,8.30
2018-09-17T09:29:31.281Z,9.20
2018-09-17T09:32:00.635Z,11.38
2018-09-17T09:34:29.114Z,11.33
2018-09-17T09:36:57.746Z,8.38
2018-09-17T09:39:26.380Z,6.58
2018-09-17T09:41:54.981Z,7.33
2018-09-17T09:44:23.432Z,6.60
2018-09-17T09:46:52.160Z,8.20
2018-09-17T09:49:20.658Z,9.73
2018-09-17T09:51:49.112Z,8.15
2018-09-17T09:54:17.661Z,9.28
2018-09-17T09:56:46.275Z,10.90
2018-09-17T09:59:14.869Z,5.80
2018-09-17T10:01:48.724Z,6.12
2018-09-17T10:04:21.839Z,9.30
2018-09-17T10:06:50.845Z,9.83
2018-09-17T10:09:24.636Z,7.67
2018-09-17T10:11:58.380Z,4.87
2018-09-17T10:14:32.046Z,3.10
2018-09-17T10:17:06.619Z,4.30
2018-09-17T10:19:35.300Z,7.17
2018-09-17T10:22:03.867Z,6.70
2018-09-17T10:24:32.758Z,4.87
2018-09-17T10:27:01.364Z,7.40
2018-09-17T10:29:29.824Z,8.30
2018-09-17T10:31:58.426Z,5.55
2018-09-17T10:34:27.066Z,8.20
2018-09-17T10:36:55.650Z,7.25
2018-09-17T10:39:24.241Z,6.10
2018-09-17T10:41:52.807Z,4.17
2018-09-17T10:44:21.429Z,5.53
2018-09-17T10:46:49.925Z,4.87
2018-09-17T10:49:18.556Z,4.10
2018-09-17T10:51:47.144Z,6.92
2018-09-17T10:54:15.669Z,6.60
2018-09-17T10:56:44.327Z,6.08
2018-09-17T10:59:12.953Z,5.10
2018-09-17T11:01:41.409Z,7.60
2018-09-17T11:04:10.043Z,5.67
2018-09-17T11:06:38.764Z,5.92
2018-09-17T11:09:10.364Z,3.60
2018-09-17T11:11:39.528Z,5.15
2018-09-17T11:14:08.126Z,7.08
2018-09-17T11:16:37.302Z,4.97
2018-09-17T11:19:05.812Z,6.75
2018-09-17T11:21:34.321Z,5.30
2018-09-17T11:24:03.495Z,3.58
2018-09-17T11:26:32.288Z,4.55
2018-09-17T11:29:00.765Z,3.62
2018-09-17T11:31:29.612Z,3.15
2018-09-17T11:33:58.045Z,4.85
2018-09-17T11:36:26.773Z,2.80
2018-09-17T11:38:55.183Z,4.20
2018-09-17T11:41:24.539Z,8.03
2018-09-17T11:43:53.051Z,4.67
2018-09-17T11:46:21.511Z,4.12
2018-09-17T11:48:50.693Z,3.62
2018-09-17T11:51:19.577Z,4.15
2018-09-17T11:53:48.259Z,3.58
2018-09-17T11:56:16.812Z,4.10
2018-09-17T11:58:45.273Z,5.70
2018-09-17T12:01:19.755Z,3.95
2018-09-17T12:03:53.581Z,5.00
2018-09-17T12:06:27.339Z,2.50
2018-09-17T12:08:55.796Z,4.67
2018-09-17T12:11:24.344Z,2.95
2018-09-17T12:13:52.978Z,3.22
2018-09-17T12:16:21.439Z,5.08
2018-09-17T12:18:49.953Z,7.20
2018-09-17T12:21:18.395Z,6.03
2018-09-17T12:23:47.111Z,2.75
2018-09-17T12:26:15.764Z,3.25
2018-09-17T12:28:44.200Z,2.62
2018-09-17T12:31:13.469Z,4.40
2018-09-17T12:33:41.979Z,3.80
2018-09-17T12:36:10.620Z,4.00
2018-09-17T12:38:39.041Z,3.12
2018-09-17T12:41:07.848Z,3.02
2018-09-17T12:43:36.432Z,3.92
2018-09-17T12:46:05.112Z,3.90
2018-09-17T12:48:33.657Z,3.58
2018-09-17T12:51:02.407Z,4.10
2018-09-17T12:53:30.998Z,2.50
2018-09-17T12:55:59.578Z,3.72
2018-09-17T12:58:28.149Z,3.27
2018-09-17T13:00:56.793Z,8.93
2018-09-17T13:03:25.793Z,2.77
2018-09-17T13:05:54.289Z,4.20
2018-09-17T13:08:22.792Z,5.20
2018-09-17T13:10:51.369Z,2.62
2018-09-17T13:13:20.663Z,3.35
2018-09-17T13:15:55.545Z,3.17
2018-09-17T13:18:25.547Z,3.12
2018-09-17T13:20:54.069Z,2.87
2018-09-17T13:23:29.179Z,3.67
2018-09-17T13:25:58.332Z,3.40
2018-09-17T13:28:33.047Z,2.75
2018-09-17T13:31:01.578Z,1.63
2018-09-17T13:33:30.385Z,2.00
2018-09-17T13:35:58.954Z,3.98
2018-09-17T13:38:27.512Z,5.15
2018-09-17T13:40:56.078Z,1.87
2018-09-17T13:43:24.835Z,3.83
2018-09-17T13:45:53.813Z,2.85
2018-09-17T13:48:22.566Z,5.47
2018-09-17T13:50:51.079Z,2.50
2018-09-17T13:53:19.855Z,4.90
2018-09-17T13:55:48.290Z,2.37
2018-09-17T13:58:16.831Z,5.12
2018-09-17T14:00:45.340Z,2.00
2018-09-17T14:03:14.790Z,2.62
2018-09-17T14:05:44.110Z,2.95
2018-09-17T14:08:12.624Z,3.67
2018-09-17T14:10:41.112Z,3.02
2018-09-17T14:13:09.792Z,1.65
2018-09-17T14:15:38.717Z,4.03
2018-09-17T14:18:07.210Z,2.72
2018-09-17T14:20:36.230Z,1.80
2018-09-17T14:23:04.744Z,1.90
2018-09-17T14:25:34.453Z,3.30
2018-09-17T14:28:05.578Z,6.45
2018-09-17T14:30:34.416Z,2.95
2018-09-17T14:33:08.295Z,3.12
2018-09-17T14:35:37.113Z,2.07
2018-09-17T14:38:05.682Z,3.65
2018-09-17T14:40:34.237Z,2.35
2018-09-17T14:43:02.848Z,3.40
2018-09-17T14:45:31.588Z,2.58
2018-09-17T14:48:00.074Z,2.33
2018-09-17T14:50:28.580Z,3.27
2018-09-17T14:52:58.457Z,3.58
2018-09-17T14:55:27.123Z,2.85
2018-09-17T14:57:55.723Z,3.75
2018-09-17T15:00:24.188Z,1.60
2018-09-17T15:02:52.830Z,10.30
2018-09-17T15:05:21.501Z,4.47
2018-09-17T15:07:50.046Z,2.85
2018-09-17T15:10:18.493Z,1.83
2018-09-17T15:12:47.227Z,3.08
2018-09-17T15:15:16.002Z,2.77
2018-09-17T15:17:44.447Z,4.15
2018-09-17T15:20:13.495Z,5.63
2018-09-17T15:22:42.298Z,4.05
2018-09-17T15:25:13.812Z,2.35
2018-09-17T15:27:42.731Z,4.62
2018-09-17T15:30:11.641Z,5.10
2018-09-17T15:32:40.351Z,4.97
2018-09-17T15:35:08.815Z,3.67
2018-09-17T15:37:37.332Z,5.60
2018-09-17T15:40:06.525Z,2.42
2018-09-17T15:42:35.012Z,4.28
2018-09-17T15:45:03.596Z,3.87
2018-09-17T15:47:32.272Z,3.90
2018-09-17T15:50:01.152Z,3.87
2018-09-17T15:52:29.755Z,4.08
2018-09-17T15:54:58.306Z,5.87
2018-09-17T15:57:26.776Z,5.83
2018-09-17T15:59:55.422Z,6.53
2018-09-17T16:02:24.025Z,3.13
2018-09-17T16:04:52.773Z,6.22
2018-09-17T16:07:24.131Z,4.35
2018-09-17T16:09:52.986Z,4.42
2018-09-17T16:12:21.732Z,4.62
2018-09-17T16:14:50.619Z,3.47
2018-09-17T16:17:19.351Z,5.87
2018-09-17T16:19:47.846Z,3.20
2018-09-17T16:22:16.422Z,5.30
2018-09-17T16:24:45.565Z,6.55
2018-09-17T16:27:14.590Z,3.85
2018-09-17T16:29:43.352Z,5.85
2018-09-17T16:32:12.607Z,4.97
2018-09-17T16:34:41.269Z,6.58
2018-09-17T16:37:09.872Z,4.35
2018-09-17T16:39:38.439Z,6.65
2018-09-17T16:42:08.079Z,6.40
2018-09-17T16:44:36.722Z,3.87
2018-09-17T16:47:05.286Z,5.12
2018-09-17T16:49:33.908Z,5.65
2018-09-17T16:52:02.424Z,6.35
2018-09-17T16:54:30.894Z,5.42
2018-09-17T16:57:00.004Z,3.72
2018-09-17T16:59:28.945Z,5.10
2018-09-17T17:01:57.505Z,4.85
2018-09-17T17:04:26.013Z,6.25
2018-09-17T17:06:54.492Z,3.33
2018-09-17T17:09:23.171Z,4.20
2018-09-17T17:11:51.832Z,5.22
2018-09-17T17:14:20.464Z,5.10
2018-09-17T17:16:49.659Z,5.30
2018-09-17T17:19:18.192Z,5.37
2018-09-17T17:21:47.016Z,5.72
2018-09-17T17:24:16.278Z,5.35
2018-09-17T17:26:44.875Z,6.12
2018-09-17T17:29:13.533Z,8.00
2018-09-17T17:31:42.185Z,4.90
2018-09-17T17:34:10.867Z,6.05
2018-09-17T17:36:46.291Z,6.12
2018-09-17T17:39:14.985Z,8.25
2018-09-17T17:41:44.094Z,6.40
2018-09-17T17:44:12.724Z,6.10
2018-09-17T17:46:41.535Z,4.87
2018-09-17T17:49:10.722Z,7.03
2018-09-17T17:51:39.410Z,4.12
2018-09-17T17:54:07.963Z,4.17
2018-09-17T17:56:36.619Z,5.50
2018-09-17T17:59:05.189Z,6.90
2018-09-17T18:01:33.908Z,8.78
2018-09-17T18:04:02.567Z,7.45
2018-09-17T18:06:31.081Z,4.83
2018-09-17T18:09:00.214Z,5.58
2018-09-17T18:11:29.017Z,6.62
2018-09-17T18:13:57.501Z,5.42
2018-09-17T18:16:32.524Z,5.78
2018-09-17T18:19:02.493Z,4.10
2018-09-17T18:21:31.429Z,5.92
2018-09-17T18:24:00.141Z,7.03
2018-09-17T18:26:29.519Z,6.08
2018-09-17T18:28:57.971Z,7.17
2018-09-17T18:31:26.656Z,7.72
2018-09-17T18:33:55.199Z,6.33
2018-09-17T18:36:23.773Z,6.75
2018-09-17T18:38:52.639Z,6.65
2018-09-17T18:41:21.305Z,6.80
2018-09-17T18:43:50.244Z,8.35
2018-09-17T18:46:18.871Z,8.70
2018-09-17T18:48:47.341Z,8.73
2018-09-17T18:51:15.973Z,11.88
2018-09-17T18:53:44.486Z,12.30
2018-09-17T18:56:13.161Z,11.40
2018-09-17T18:58:41.636Z,11.65
2018-09-17T19:01:10.232Z,11.80
2018-09-17T19:03:38.727Z,10.82
2018-09-17T19:06:07.505Z,13.43
2018-09-17T19:08:35.956Z,10.75
2018-09-17T19:11:06.036Z,12.55
2018-09-17T19:13:35.009Z,13.13
2018-09-17T19:16:03.579Z,11.10
2018-09-17T19:18:32.239Z,15.40
2018-09-17T19:21:01.569Z,14.05
2018-09-17T19:23:35.181Z,11.73
2018-09-17T19:26:03.973Z,10.05
2018-09-17T19:28:37.704Z,11.43
2018-09-17T19:31:06.234Z,10.10
2018-09-17T19:33:34.725Z,10.58
2018-09-17T19:36:03.325Z,15.68
2018-09-17T19:38:36.927Z,10.40
2018-09-17T19:41:05.493Z,10.93
2018-09-17T19:43:34.142Z,8.73
2018-09-17T19:46:20.464Z,10.03
2018-09-17T19:48:49.458Z,9.08
2018-09-17T19:51:23.284Z,9.77
2018-09-17T19:53:51.710Z,8.18
2018-09-17T19:56:20.487Z,11.97
2018-09-17T19:58:54.239Z,12.50
2018-09-17T20:01:22.767Z,10.75
2018-09-17T20:03:51.389Z,12.18
2018-09-17T20:06:22.783Z,9.58
2018-09-17T20:08:51.387Z,9.60
2018-09-17T20:11:19.126Z,10.48
2018-09-17T20:13:47.741Z,10.95
2018-09-17T20:16:16.420Z,12.47
2018-09-17T20:18:44.907Z,11.30
2018-09-17T20:21:13.358Z,11.48
2018-09-17T20:23:42.559Z,12.75
2018-09-17T20:26:11.372Z,12.45
2018-09-17T20:28:40.034Z,13.20
2018-09-17T20:31:08.576Z,12.63
2018-09-17T20:33:37.559Z,13.38
2018-09-17T20:36:06.230Z,13.83
2018-09-17T20:38:34.774Z,13.62
2018-09-17T20:41:03.360Z,14.95
2018-09-17T20:43:32.409Z,13.75
2018-09-17T20:46:01.341Z,12.68
2018-09-17T20:48:29.864Z,11.78
2018-09-17T20:50:58.851Z,14.87
2018-09-17T20:53:27.653Z,12.98
2018-09-17T20:55:56.506Z,12.40
2018-09-17T20:58:24.971Z,15.83
2018-09-17T21:00:53.453Z,15.93
2018-09-17T21:03:21.901Z,16.12
2018-09-17T21:05:51.232Z,14.78
2018-09-17T21:08:19.965Z,13.93
2018-09-17T21:10:48.666Z,14.30
2018-09-17T21:13:17.281Z,13.80
2018-09-17T21:15:45.811Z,13.68
2018-09-17T21:18:14.304Z,15.78
2018-09-17T21:20:42.903Z,14.05
2018-09-17T21:23:11.416Z,15.50
2018-09-17T21:25:40.576Z,15.08
2018-09-17T21:28:09.144Z,15.43
2018-09-17T21:30:38.207Z,13.40
2018-09-17T21:33:07.068Z,13.58
2018-09-17T21:35:35.630Z,14.13
2018-09-17T21:38:04.953Z,14.25
2018-09-17T21:40:33.381Z,12.78
2018-09-17T21:43:01.937Z,15.40
2018-09-17T21:45:30.494Z,14.90
2018-09-17T21:47:59.096Z,13.40
2018-09-17T21:50:27.626Z,14.03
2018-09-17T21:52:56.302Z,10.63
2018-09-17T21:55:24.805Z,12.57
2018-09-17T21:57:53.341Z,14.15
2018-09-17T22:00:21.865Z,11.43
2018-09-17T22:02:50.284Z,15.08
2018-09-17T22:05:18.801Z,12.43
2018-09-17T22:07:47.377Z,11.43
2018-09-17T22:10:15.924Z,14.80
2018-09-17T22:12:44.594Z,12.27
2018-09-17T22:15:13.202Z,12.13
2018-09-17T22:17:41.633Z,13.33
2018-09-17T22:20:10.302Z,9.73
2018-09-17T22:22:38.841Z,13.90
2018-09-17T22:25:07.391Z,10.53
2018-09-17T22:27:36.364Z,12.23
2018-09-17T22:30:04.907Z,10.30
2018-09-17T22:32:33.409Z,9.95
2018-09-17T22:35:02.953Z,11.67
2018-09-17T22:37:31.555Z,9.90
2018-09-17T22:40:00.096Z,11.13
2018-09-17T22:42:28.966Z,8.08
2018-09-17T22:44:57.404Z,10.83
2018-09-17T22:47:25.845Z,12.90
2018-09-17T22:49:54.364Z,12.65
2018-09-17T22:52:22.831Z,11.08
2018-09-17T22:54:51.277Z,8.53
2018-09-17T22:57:19.808Z,15.03
2018-09-17T22:59:48.460Z,10.18
2018-09-17T23:02:16.896Z,9.87
2018-09-17T23:04:45.519Z,10.20
2018-09-17T23:07:14.090Z,11.70
2018-09-17T23:09:42.609Z,12.25
2018-09-17T23:12:17.366Z,9.23
2018-09-17T23:14:45.972Z,8.27
2018-09-17T23:17:14.585Z,8.07
2018-09-17T23:19:43.017Z,9.73
2018-09-17T23:22:11.588Z,9.08
2018-09-17T23:24:40.155Z,6.97
2018-09-17T23:27:08.580Z,7.93
2018-09-17T23:29:37.156Z,10.55
2018-09-17T23:32:06.024Z,11.15
2018-09-17T23:34:34.640Z,6.90
2018-09-17T23:37:03.135Z,10.87
2018-09-17T23:39:31.606Z,8.57
2018-09-17T23:42:00.451Z,9.23
2018-09-17T23:44:29.083Z,11.60
2018-09-17T23:46:57.539Z,6.80
2018-09-17T23:49:25.963Z,7.50
2018-09-17T23:51:54.376Z,8.30
2018-09-17T23:54:22.764Z,11.22
2018-09-17T23:56:51.222Z,7.37
2018-09-17T23:59:19.814Z,9.88
